Skip Navigation Links
NOAA logo - Click to go to the NOAA homepage
NOAA's National Weather Service
Alaska Aviation Weather Unit
  NWS logo - Click to go to the NWS homepage
Left Navbar Graphic     19 AKDT = 03 GMT

   
NOAA is celebrating 200 years of science, service, and stewardship. Visit the NOAA 200th celebration Web site to learn more.
USA.gov is the U.S. Government's official Web portal to all Federal, state and local government Web resources and services.
Facebook
NWS on Facebook

Important Change Regarding the AAWU Web Presence

 

Over the last several months, the AAWU has been working to navigate its webpages to a nationally supported server. Security, as well as other needs, have necessitated the change.  In the process, we have made an effort to enhance the functionality of our website, as well as some of our products. As of June 20, 2017, aawu.arh.noaa.gov will be discontinued. The new AAWU web address is weather.gov/aawu. It is now live and will run in-parallel with the old site until it is discontinued. Please send any feedback or questions regarding the new webpages to nws.ar.aawu.webauthors@noaa.gov.  Thank you for your patience during this time of transition.
AAWU Home :: Display TAF Add Bookmark
TAF PAHN 242340Z 2500/2524 12010G20KT P6SM FEW020 BKN050
     FM250600 11010KT P6SM SCT025 BKN050
     FM251000 10010KT P6SM BKN025 OVC040
     FM251500 11010G20KT P6SM VCSH SCT025 OVC050
      AMD LTD TO CLD VIS AND WIND=
PAHN 242154Z AUTO 12011G18KT 10SM BKN055 13/06 A3018 RMK AO2
     SLP220 T01280056 TSNO=

METAR PAHN 242254Z AUTO 12010G17KT 10SM OVC055 12/04 A3017 RMK AO2
 SLP218 T01170044 TSNO=

METAR PAHN 242354Z AUTO 11010G18KT 10SM BKN055 12/04 A3016 RMK AO2
     SLP214 T01170044 10133 20111 58008 TSNO=

METAR PAHN 250054Z AUTO 11011G17KT 10SM OVC060 11/04 A3015 RMK AO2
     SLP211 T01110044 TSNO=

METAR PAHN 250154Z AUTO 11011G18KT 10SM OVC055 12/04 A3014 RMK AO2
     SLP208 T01170044 TSNO=

METAR PAHN 250254Z AUTO 11011G22KT 10SM BKN050 OVC080 11/03 A3013
 RMK AO2 SLP204 T01110033 58010 TSNO=


NOAA's National Weather Service
Alaska Aviation Weather Unit
6930 Sand Lake Road
Anchorage, AK 99502-1845
Disclaimer
Credits
Glossary
Privacy Policy
About Us
Career Opportunities
Contact AAWU Internet Services Site last modified: April, 17th 2012